Terminal Aerodrome Forecast
Issued by NWS Duluth, MN

Home | Current Version | Previous Version | Text Only | Print | Product List | Glossary On
Versions: 1 2 3 4 5 6 7 8 9 10 11 12 13 14 15 16 17 18 19 20 21 22 23 24
000
FTUS43 KDLH 211700
TAFDLH
TAF
KDLH 211721Z 2118/2218 22007G15KT P6SM FEW030
     FM220500 13009KT P6SM -TSRA BKN050CB
      TEMPO 2205/2208 2SM TSRA OVC035CB
     FM220900 VRB05KT 4SM BR VCSH SCT004 OVC007
     FM221500 30010G20KT P6SM SCT007 OVC015=

USA.gov is the U.S. government's official web portal to all federal, state and local government web resources and services.